createdAt,value
2018-05-02T05:43:22.354Z,320
2018-05-02T05:44:23.895Z,320
2018-05-02T05:46:15.598Z,365
2018-05-02T05:47:17.205Z,382
2018-05-02T05:49:08.916Z,399
2018-05-02T05:50:10.520Z,399
2018-05-02T05:52:02.697Z,405
2018-05-02T05:53:04.312Z,410
2018-05-02T05:54:06.036Z,421
2018-05-02T05:55:07.526Z,416
2018-05-02T05:56:09.146Z,421
2018-05-02T05:57:10.755Z,421
2018-05-02T05:58:12.373Z,427
2018-05-02T05:59:13.988Z,433
2018-05-02T06:00:15.595Z,433
2018-05-02T06:01:17.208Z,438
2018-05-02T06:02:18.820Z,438
2018-05-02T06:03:20.431Z,450
2018-05-02T06:04:22.051Z,444
2018-05-02T06:05:23.662Z,450
2018-05-02T06:06:25.279Z,450
2018-05-02T06:07:26.885Z,455
2018-05-02T06:08:28.503Z,455
2018-05-02T06:09:30.120Z,461
2018-05-02T06:10:31.728Z,466
2018-05-02T06:11:33.346Z,466
2018-05-02T06:12:34.971Z,461
2018-05-02T06:13:36.569Z,461
2018-05-02T06:14:38.187Z,478
2018-05-02T06:15:39.803Z,478
2018-05-02T06:16:41.418Z,483
2018-05-02T06:17:43.037Z,489
2018-05-02T06:18:44.662Z,506
2018-05-02T06:19:46.262Z,506
2018-05-02T06:20:47.874Z,511
2018-05-02T06:21:49.487Z,517
2018-05-02T06:22:51.104Z,517
2018-05-02T06:23:52.721Z,528
2018-05-02T06:24:54.332Z,540
2018-05-02T06:25:55.952Z,545
2018-05-02T06:26:57.562Z,551
2018-05-02T06:27:59.173Z,562
2018-05-02T06:29:00.794Z,573
2018-05-02T06:30:02.409Z,579
2018-05-02T06:31:04.018Z,585
2018-05-02T06:32:05.630Z,596
2018-05-02T06:33:07.247Z,613
2018-05-02T06:34:08.861Z,950
2018-05-02T06:35:10.481Z,1822
2018-05-02T06:36:12.101Z,2581
2018-05-02T06:37:13.717Z,2559
2018-05-02T06:38:15.329Z,2435
2018-05-02T06:39:16.944Z,2688
2018-05-02T06:40:18.566Z,2688
2018-05-02T06:41:20.180Z,2750
2018-05-02T06:42:21.799Z,3189
2018-05-02T06:43:23.472Z,2812
2018-05-02T06:44:25.043Z,2520
2018-05-02T06:45:26.665Z,2812
2018-05-02T06:46:28.287Z,3082
2018-05-02T06:47:29.903Z,3403
2018-05-02T06:48:31.523Z,3504
2018-05-02T06:49:33.149Z,3071
2018-05-02T06:50:34.764Z,3065
2018-05-02T06:51:36.391Z,3532
2018-05-02T06:52:38.011Z,3825
2018-05-02T06:53:39.636Z,3886
2018-05-02T06:54:41.319Z,4078
2018-05-02T06:55:42.881Z,4241
2018-05-02T06:56:44.512Z,3543
2018-05-02T06:57:46.136Z,2812
2018-05-02T06:58:47.755Z,2587
2018-05-02T06:59:49.378Z,2446
2018-05-02T07:00:51.075Z,2283
2018-05-02T07:01:52.629Z,2171
2018-05-02T07:02:54.259Z,2120
2018-05-02T07:03:55.882Z,2070
2018-05-02T07:04:57.505Z,2103
2018-05-02T07:05:59.133Z,2115
2018-05-02T07:07:00.764Z,2109
2018-05-02T07:08:02.383Z,2103
2018-05-02T07:09:04.014Z,2098
2018-05-02T07:10:05.637Z,2086
2018-05-02T07:11:07.259Z,2103
2018-05-02T07:12:08.891Z,2148
2018-05-02T07:13:10.513Z,2165
2018-05-02T07:14:12.136Z,2199
2018-05-02T07:15:13.765Z,2250
2018-05-02T07:16:15.390Z,2295
2018-05-02T07:17:17.014Z,2317
2018-05-02T07:18:18.649Z,2306
2018-05-02T07:19:20.274Z,2356
2018-05-02T07:20:21.900Z,2311
2018-05-02T07:21:23.529Z,2373
2018-05-02T07:22:25.156Z,2368
2018-05-02T07:23:26.786Z,2418
2018-05-02T07:24:28.416Z,2413
2018-05-02T07:25:30.046Z,2475
2018-05-02T07:26:31.678Z,2520
2018-05-02T07:27:33.303Z,2705
2018-05-02T07:28:34.934Z,2846
2018-05-02T07:29:36.566Z,2925
2018-05-02T07:30:38.193Z,2930
2018-05-02T07:31:39.828Z,2925
2018-05-02T07:32:41.584Z,2925
2018-05-02T07:33:43.090Z,2913
2018-05-02T07:34:44.718Z,2947
2018-05-02T07:35:46.350Z,3009
2018-05-02T07:36:47.987Z,2986
2018-05-02T07:37:49.615Z,3054
2018-05-02T07:38:51.254Z,3054
2018-05-02T07:39:52.882Z,2970
2018-05-02T07:40:54.516Z,3071
2018-05-02T07:41:56.151Z,3071
2018-05-02T07:42:57.776Z,3076
2018-05-02T07:43:59.423Z,3172
2018-05-02T07:45:01.045Z,3178
2018-05-02T07:46:02.684Z,3172
2018-05-02T07:47:04.314Z,3155
2018-05-02T07:48:05.950Z,3155
2018-05-02T07:49:07.574Z,3071
2018-05-02T07:50:09.205Z,2970
2018-05-02T07:51:10.839Z,3009
2018-05-02T07:52:12.475Z,2992
2018-05-02T07:53:14.108Z,3026
2018-05-02T07:54:15.736Z,2998
2018-05-02T07:55:17.371Z,2986
2018-05-02T07:56:19.018Z,2986
2018-05-02T07:57:20.638Z,2975
2018-05-02T07:58:22.283Z,2947
2018-05-02T07:59:23.910Z,2896
2018-05-02T08:00:25.542Z,3071
2018-05-02T08:01:27.182Z,3065
2018-05-02T08:02:28.813Z,3127
2018-05-02T08:03:30.447Z,3155
2018-05-02T08:04:32.077Z,3571
2018-05-02T08:05:33.714Z,3993
2018-05-02T08:06:35.347Z,4483
2018-05-02T08:07:36.979Z,4483
2018-05-02T08:08:38.619Z,4691
2018-05-02T08:09:40.246Z,5006
2018-05-02T08:10:41.887Z,5175
2018-05-02T08:11:43.517Z,4550
2018-05-02T08:12:45.159Z,4747
2018-05-02T08:13:46.783Z,4410
2018-05-02T08:14:48.419Z,5259
2018-05-02T08:15:50.052Z,5523
2018-05-02T08:16:51.682Z,5675
2018-05-02T08:17:53.322Z,5394
2018-05-02T08:18:54.949Z,4128
2018-05-02T08:19:56.587Z,4218
2018-05-02T08:20:58.224Z,3256
2018-05-02T08:21:59.939Z,2998
2018-05-02T08:23:01.488Z,2767
2018-05-02T08:24:03.119Z,3088
2018-05-02T08:25:04.752Z,3358
2018-05-02T08:26:06.381Z,3774
2018-05-02T08:27:08.016Z,4201
2018-05-02T08:28:09.649Z,2649
2018-05-02T08:29:11.281Z,3667
2018-05-02T08:30:12.910Z,3740
2018-05-02T08:31:14.541Z,2981
2018-05-02T08:32:16.176Z,2700
2018-05-02T08:33:17.804Z,2840
2018-05-02T08:34:19.439Z,3003
2018-05-02T08:35:21.068Z,3076
2018-05-02T08:36:22.693Z,2840
2018-05-02T08:37:24.330Z,3763
2018-05-02T08:38:25.965Z,3268
2018-05-02T08:39:27.599Z,4314
2018-05-02T08:40:29.228Z,1901
2018-05-02T08:41:30.857Z,4336
2018-05-02T08:42:32.491Z,3155
2018-05-02T08:43:34.109Z,2981
2018-05-02T08:44:35.743Z,2289
2018-05-02T08:45:37.364Z,2418
2018-05-02T08:46:39.000Z,3532
2018-05-02T08:47:40.626Z,4078
2018-05-02T08:48:42.252Z,3650
2018-05-02T08:49:43.885Z,3245
2018-05-02T08:50:45.514Z,2846
2018-05-02T08:51:47.146Z,2761
2018-05-02T08:52:48.769Z,5017
2018-05-02T08:53:50.403Z,3780
2018-05-02T08:54:52.031Z,5265
2018-05-02T08:55:53.661Z,6007
2018-05-02T08:56:55.293Z,4376
2018-05-02T08:57:56.925Z,6260
2018-05-02T08:58:58.553Z,4820
2018-05-02T09:00:00.178Z,4736
2018-05-02T09:01:01.814Z,2925
2018-05-02T09:02:03.446Z,3256
2018-05-02T09:03:05.072Z,6384
2018-05-02T09:04:06.707Z,5664
2018-05-02T09:05:08.335Z,4753
2018-05-02T09:06:09.970Z,5889
2018-05-02T09:07:11.600Z,6856
2018-05-02T09:08:13.224Z,6676
2018-05-02T09:09:14.854Z,6598
2018-05-02T09:10:16.491Z,4651
2018-05-02T09:11:18.124Z,6373
2018-05-02T09:12:19.760Z,5433
2018-05-02T09:13:21.394Z,5771
2018-05-02T09:14:23.021Z,5737
2018-05-02T09:15:24.656Z,6311
2018-05-02T09:16:26.291Z,6401
2018-05-02T09:17:27.919Z,5405
2018-05-02T09:18:29.552Z,6052
2018-05-02T09:19:31.190Z,5670
2018-05-02T09:20:32.819Z,6333
2018-05-02T09:21:34.466Z,6755
2018-05-02T09:22:36.097Z,6384
2018-05-02T09:23:37.727Z,6131
2018-05-02T09:24:39.361Z,6575
2018-05-02T09:25:41.078Z,6030
2018-05-02T09:26:42.631Z,5726
2018-05-02T09:27:44.269Z,6941
2018-05-02T09:28:45.902Z,7273
2018-05-02T09:29:47.539Z,4629
2018-05-02T09:30:49.169Z,2182
2018-05-02T09:31:50.805Z,6688
2018-05-02T09:32:52.444Z,6963
2018-05-02T09:33:54.081Z,6491
2018-05-02T09:34:55.712Z,4421
2018-05-02T09:35:57.352Z,6716
2018-05-02T09:36:58.986Z,7115
2018-05-02T09:38:00.625Z,6058
2018-05-02T09:39:02.264Z,4938
2018-05-02T09:40:03.895Z,6187
2018-05-02T09:41:05.535Z,5506
2018-05-02T09:42:07.172Z,5737
2018-05-02T09:43:08.808Z,2081
2018-05-02T09:44:10.444Z,3926
2018-05-02T09:45:12.075Z,7143
2018-05-02T09:46:13.715Z,7132
2018-05-02T09:47:15.350Z,7149
2018-05-02T09:48:16.992Z,7621
2018-05-02T09:49:18.635Z,7627
2018-05-02T09:50:20.263Z,6384
2018-05-02T09:51:21.903Z,7025
2018-05-02T09:52:23.533Z,7025
2018-05-02T09:53:25.166Z,7166
2018-05-02T09:54:26.808Z,7413
2018-05-02T09:55:28.442Z,7380
2018-05-02T09:56:30.084Z,7385
2018-05-02T09:57:31.717Z,7650
2018-05-02T09:58:33.360Z,7638
2018-05-02T09:59:34.995Z,7796
2018-05-02T10:00:36.629Z,7627
2018-05-02T10:01:38.271Z,7481
2018-05-02T10:02:39.906Z,7678
2018-05-02T10:03:41.543Z,7284
2018-05-02T10:04:43.185Z,7188
2018-05-02T10:05:44.819Z,7363
2018-05-02T10:06:46.460Z,7554
2018-05-02T10:07:48.100Z,5895
2018-05-02T10:08:49.736Z,1901
2018-05-02T10:09:51.379Z,7711
2018-05-02T10:10:53.019Z,8077
2018-05-02T10:11:54.654Z,7464
2018-05-02T10:12:56.294Z,6305
2018-05-02T10:13:57.927Z,7177
2018-05-02T10:14:59.567Z,4826
2018-05-02T10:16:01.211Z,3813
2018-05-02T10:17:03.448Z,2233
2018-05-02T10:18:05.085Z,7098
2018-05-02T10:19:06.720Z,7627
2018-05-02T10:20:08.362Z,7554
2018-05-02T10:21:09.994Z,7543
2018-05-02T10:22:11.636Z,7520
2018-05-02T10:23:13.270Z,7368
2018-05-02T10:24:14.908Z,7475
2018-05-02T10:25:16.549Z,7340
2018-05-02T10:26:18.260Z,7374
2018-05-02T10:27:19.823Z,7610
2018-05-02T10:28:21.462Z,7537
2018-05-02T10:29:23.096Z,7678
2018-05-02T10:30:24.736Z,7672
2018-05-02T10:31:26.383Z,7689
2018-05-02T10:32:28.015Z,7695
2018-05-02T10:33:29.648Z,7520
2018-05-02T10:34:31.282Z,7700
2018-05-02T10:35:32.920Z,7666
2018-05-02T10:36:34.557Z,3892
2018-05-02T10:37:36.199Z,7678
2018-05-02T10:38:37.839Z,7340
2018-05-02T10:39:39.475Z,7160
2018-05-02T10:40:41.108Z,7160
2018-05-02T10:41:42.749Z,7661
2018-05-02T10:42:44.389Z,7605
2018-05-02T10:43:46.027Z,7470
2018-05-02T10:44:47.669Z,7430
2018-05-02T10:45:49.304Z,7368
2018-05-02T10:46:50.943Z,7278
2018-05-02T10:47:52.587Z,6108
2018-05-02T10:48:54.222Z,6361
2018-05-02T10:49:55.864Z,7655
2018-05-02T10:50:57.501Z,7661
2018-05-02T10:51:59.148Z,7312
2018-05-02T10:53:00.784Z,7363
2018-05-02T10:54:02.434Z,7683
2018-05-02T10:55:04.065Z,7672
2018-05-02T10:56:05.699Z,7695
2018-05-02T10:57:07.346Z,7526
2018-05-02T10:58:08.984Z,7447
2018-05-02T10:59:10.623Z,7683
2018-05-02T11:00:12.271Z,7925
2018-05-02T11:01:13.908Z,7723
2018-05-02T11:02:15.574Z,7672
2018-05-02T11:03:17.212Z,6800
2018-05-02T11:04:18.853Z,2143
2018-05-02T11:05:20.491Z,7875
2018-05-02T11:06:22.136Z,7250
2018-05-02T11:07:23.772Z,7171
2018-05-02T11:08:25.502Z,7610
2018-05-02T11:09:27.051Z,7200
2018-05-02T11:10:28.696Z,7655
2018-05-02T11:11:30.332Z,7824
2018-05-02T11:12:31.974Z,7565
2018-05-02T11:13:33.617Z,7194
2018-05-02T11:14:35.255Z,7329
2018-05-02T11:15:36.900Z,7650
2018-05-02T11:16:38.533Z,2778
2018-05-02T11:17:40.173Z,7644
2018-05-02T11:18:41.813Z,7959
2018-05-02T11:19:43.455Z,7678
2018-05-02T11:20:45.095Z,7025
2018-05-02T11:21:46.736Z,7149
2018-05-02T11:22:48.380Z,6733
2018-05-02T11:23:50.017Z,7593
2018-05-02T11:24:51.657Z,7278
2018-05-02T11:25:53.299Z,7408
2018-05-02T11:26:54.936Z,7453
2018-05-02T11:27:56.570Z,6952
2018-05-02T11:28:58.215Z,7672
2018-05-02T11:29:59.852Z,6896
2018-05-02T11:31:01.494Z,7121
2018-05-02T11:32:03.133Z,7447
2018-05-02T11:33:04.769Z,7177
2018-05-02T11:34:06.415Z,6778
2018-05-02T11:35:08.052Z,7003
2018-05-02T11:36:09.694Z,6873
2018-05-02T11:37:11.333Z,6946
2018-05-02T11:38:12.972Z,7183
2018-05-02T11:39:14.614Z,7166
2018-05-02T11:40:16.253Z,7183
2018-05-02T11:41:17.893Z,7183
2018-05-02T11:42:19.545Z,7413
2018-05-02T11:43:21.179Z,7200
2018-05-02T11:44:22.819Z,6930
2018-05-02T11:45:24.459Z,6834
2018-05-02T11:46:26.099Z,6766
2018-05-02T11:47:27.740Z,6108
2018-05-02T11:48:29.380Z,5456
2018-05-02T11:49:31.013Z,5855
2018-05-02T11:50:32.650Z,5754
2018-05-02T11:51:34.300Z,6750
2018-05-02T11:52:35.936Z,7188
2018-05-02T11:53:37.579Z,4888
2018-05-02T11:54:39.219Z,4443
2018-05-02T11:55:40.860Z,6463
2018-05-02T11:56:42.502Z,5113
2018-05-02T11:57:44.182Z,6525
2018-05-02T11:58:45.777Z,5709
2018-05-02T11:59:47.413Z,5866
2018-05-02T12:00:49.045Z,5169
2018-05-02T12:01:50.687Z,5208
2018-05-02T12:02:52.324Z,4280
2018-05-02T12:03:53.961Z,3993
2018-05-02T12:04:55.605Z,4168
2018-05-02T12:05:57.240Z,5265
2018-05-02T12:06:58.869Z,5090
2018-05-02T12:08:00.509Z,5208
2018-05-02T12:09:02.140Z,4983
2018-05-02T12:10:03.782Z,5011
2018-05-02T12:11:05.424Z,5383
2018-05-02T12:12:07.066Z,6165
2018-05-02T12:13:08.702Z,5799
2018-05-02T12:14:10.335Z,5186
2018-05-02T12:15:11.975Z,5321
2018-05-02T12:16:13.609Z,4764
2018-05-02T12:17:15.249Z,4561
2018-05-02T12:18:16.882Z,4308
2018-05-02T12:19:18.524Z,3650
2018-05-02T12:20:20.160Z,3954
2018-05-02T12:21:21.788Z,4252
2018-05-02T12:22:23.429Z,4747
2018-05-02T12:23:25.064Z,4792
2018-05-02T12:24:26.702Z,5281
2018-05-02T12:25:28.339Z,5608
2018-05-02T12:26:29.977Z,5180
2018-05-02T12:27:31.615Z,4685
2018-05-02T12:28:33.248Z,3937
2018-05-02T12:29:34.883Z,4218
2018-05-02T12:30:36.518Z,4078
2018-05-02T12:31:38.146Z,5641
2018-05-02T12:32:39.787Z,5675
2018-05-02T12:33:41.418Z,5990
2018-05-02T12:34:43.059Z,5096
2018-05-02T12:35:44.693Z,4561
2018-05-02T12:36:46.324Z,3690
2018-05-02T12:37:47.959Z,3571
2018-05-02T12:38:49.591Z,4072
2018-05-02T12:39:51.229Z,3684
2018-05-02T12:40:52.888Z,3566
2018-05-02T12:41:54.499Z,3926
2018-05-02T12:42:56.132Z,4927
2018-05-02T12:43:57.761Z,4674
2018-05-02T12:44:59.390Z,4376
2018-05-02T12:46:01.028Z,4955
2018-05-02T12:47:02.662Z,4668
2018-05-02T12:48:04.298Z,5658
2018-05-02T12:49:05.932Z,5692
2018-05-02T12:50:07.557Z,5101
2018-05-02T12:51:09.192Z,5180
2018-05-02T12:52:10.828Z,5416
2018-05-02T12:53:12.457Z,5585
2018-05-02T12:54:14.093Z,5484
2018-05-02T12:55:15.725Z,4561
2018-05-02T12:56:17.388Z,4888
2018-05-02T12:57:18.995Z,5135
2018-05-02T12:58:20.636Z,4736
2018-05-02T12:59:22.263Z,5664
2018-05-02T13:00:23.899Z,4201
2018-05-02T13:01:25.531Z,4449
2018-05-02T13:02:27.192Z,4061
2018-05-02T13:03:28.799Z,4370
2018-05-02T13:04:30.451Z,4803
2018-05-02T13:05:32.064Z,3678
2018-05-02T13:06:33.692Z,3673
2018-05-02T13:07:35.331Z,3515
2018-05-02T13:08:36.970Z,4545
2018-05-02T13:09:38.599Z,3881
2018-05-02T13:10:40.238Z,3549
2018-05-02T13:11:41.867Z,3065
2018-05-02T13:12:43.498Z,3470
2018-05-02T13:13:45.134Z,3555
2018-05-02T13:14:46.759Z,4033
2018-05-02T13:15:48.397Z,3830
2018-05-02T13:16:50.027Z,4117
2018-05-02T13:17:51.657Z,3661
2018-05-02T13:18:53.293Z,3335
2018-05-02T13:19:54.932Z,3605
2018-05-02T13:20:56.559Z,4190
2018-05-02T13:21:58.191Z,4466
2018-05-02T13:22:59.823Z,3903
2018-05-02T13:24:01.456Z,3583
2018-05-02T13:25:03.095Z,3549
2018-05-02T13:26:04.719Z,3802
2018-05-02T13:27:06.346Z,4033
2018-05-02T13:28:07.982Z,3774
2018-05-02T13:29:09.611Z,3594
2018-05-02T13:30:11.249Z,3903
2018-05-02T13:31:12.881Z,3172
2018-05-02T13:32:14.515Z,3667
2018-05-02T13:33:16.165Z,3532
2018-05-02T13:34:17.775Z,2784
2018-05-02T13:35:19.400Z,3161
2018-05-02T13:36:21.038Z,2835
2018-05-02T13:37:22.663Z,2913
2018-05-02T13:38:24.307Z,2975
2018-05-02T13:39:26.047Z,2553
2018-05-02T13:40:27.561Z,2840
2018-05-02T13:41:29.193Z,2896
2018-05-02T13:42:30.821Z,2829
2018-05-02T13:43:32.453Z,2761
2018-05-02T13:44:34.087Z,2829
2018-05-02T13:45:35.715Z,2970
2018-05-02T13:46:37.352Z,2913
2018-05-02T13:47:38.971Z,2823
2018-05-02T13:48:40.602Z,2829
2018-05-02T13:49:42.231Z,2767
2018-05-02T13:50:43.864Z,2992
2018-05-02T13:51:45.494Z,3217
2018-05-02T13:52:47.126Z,3133
2018-05-02T13:53:48.756Z,3133
2018-05-02T13:54:50.386Z,3144
2018-05-02T13:55:52.012Z,3048
2018-05-02T13:56:53.643Z,3133
2018-05-02T13:57:55.277Z,2818
2018-05-02T13:58:56.900Z,3211
2018-05-02T13:59:58.564Z,3009
2018-05-02T14:01:00.232Z,3223
2018-05-02T14:02:01.788Z,2970
2018-05-02T14:03:03.422Z,3127
2018-05-02T14:04:05.048Z,3408
2018-05-02T14:05:06.754Z,3403
2018-05-02T14:06:08.315Z,3870
2018-05-02T14:07:09.946Z,3538
2018-05-02T14:08:11.643Z,3999
2018-05-02T14:09:13.200Z,4111
2018-05-02T14:10:14.831Z,3650
2018-05-02T14:11:16.457Z,3870
2018-05-02T14:12:18.091Z,3521
2018-05-02T14:13:19.723Z,3616
2018-05-02T14:14:21.348Z,2722
2018-05-02T14:15:22.981Z,2975
2018-05-02T14:16:24.609Z,3223
2018-05-02T14:17:26.238Z,2964
2018-05-02T14:18:27.869Z,2638
2018-05-02T14:19:29.494Z,2317
2018-05-02T14:20:31.121Z,2188
2018-05-02T14:21:32.757Z,2165
2018-05-02T14:22:34.382Z,2053
2018-05-02T14:23:36.020Z,2340
2018-05-02T14:24:37.640Z,2396
2018-05-02T14:25:39.261Z,2452
2018-05-02T14:26:40.892Z,2559
2018-05-02T14:27:42.521Z,2261
2018-05-02T14:28:44.156Z,2801
2018-05-02T14:29:45.779Z,3487
2018-05-02T14:30:47.405Z,2559
2018-05-02T14:31:49.036Z,2306
2018-05-02T14:32:50.742Z,2790
2018-05-02T14:33:52.292Z,2497
2018-05-02T14:34:53.921Z,3144
2018-05-02T14:35:55.547Z,2745
2018-05-02T14:36:57.186Z,2621
2018-05-02T14:37:58.808Z,3195
2018-05-02T14:39:00.439Z,2165
2018-05-02T14:40:02.063Z,2604
2018-05-02T14:41:03.691Z,2086
2018-05-02T14:42:05.325Z,2328
2018-05-02T14:43:06.944Z,2390
2018-05-02T14:44:08.579Z,2666
2018-05-02T14:45:10.207Z,2868
2018-05-02T14:46:11.830Z,2666
2018-05-02T14:47:13.460Z,2548
2018-05-02T14:48:15.086Z,2677
2018-05-02T14:49:16.713Z,2739
2018-05-02T14:50:18.347Z,3003
2018-05-02T14:51:19.971Z,2576
2018-05-02T14:52:21.604Z,2806
2018-05-02T14:53:23.225Z,2936
2018-05-02T14:54:24.860Z,3363
2018-05-02T14:55:26.485Z,3228
2018-05-02T14:56:28.109Z,2919
2018-05-02T14:57:29.747Z,2671
2018-05-02T14:58:31.372Z,2435
2018-05-02T14:59:32.999Z,2598
2018-05-02T15:00:34.627Z,2345
2018-05-02T15:01:36.283Z,2182
2018-05-02T15:02:37.883Z,2019
2018-05-02T15:03:39.514Z,1951
2018-05-02T15:04:41.139Z,1974
2018-05-02T15:05:42.770Z,1878
2018-05-02T15:06:44.393Z,1985
2018-05-02T15:07:46.019Z,1861
2018-05-02T15:08:47.649Z,1873
2018-05-02T15:09:49.274Z,1816
2018-05-02T15:10:50.907Z,1833
2018-05-02T15:11:52.538Z,1940
2018-05-02T15:12:54.167Z,1895
2018-05-02T15:13:55.793Z,1704
2018-05-02T15:14:57.420Z,1665
2018-05-02T15:15:59.044Z,1704
2018-05-02T15:17:00.674Z,1693
2018-05-02T15:18:02.325Z,1687
2018-05-02T15:19:03.926Z,1653
2018-05-02T15:20:05.554Z,1665
2018-05-02T15:21:07.181Z,1710
2018-05-02T15:22:08.804Z,1693
2018-05-02T15:23:10.441Z,1620
2018-05-02T15:24:12.066Z,1591
2018-05-02T15:25:13.686Z,1659
2018-05-02T15:26:15.311Z,1535
2018-05-02T15:27:16.945Z,1524
2018-05-02T15:28:18.571Z,1490
2018-05-02T15:29:20.198Z,1462
2018-05-02T15:30:21.827Z,1479
2018-05-02T15:31:23.458Z,1451
2018-05-02T15:32:25.078Z,1440
2018-05-02T15:33:26.710Z,1434
2018-05-02T15:34:28.338Z,1434
2018-05-02T15:35:29.962Z,1428
2018-05-02T15:36:31.592Z,1434
2018-05-02T15:37:33.214Z,1501
2018-05-02T15:38:34.835Z,1417
2018-05-02T15:39:36.465Z,1417
2018-05-02T15:40:38.092Z,1417
2018-05-02T15:41:39.718Z,1411
2018-05-02T15:42:41.340Z,1423
2018-05-02T15:43:42.965Z,1411
2018-05-02T15:44:44.591Z,1451
2018-05-02T15:45:46.218Z,1468
2018-05-02T15:46:47.844Z,1445
2018-05-02T15:47:49.473Z,1456
2018-05-02T15:48:51.103Z,1411
2018-05-02T15:49:52.724Z,1395
2018-05-02T15:50:54.347Z,1383
2018-05-02T15:51:55.977Z,1366
2018-05-02T15:52:57.597Z,1338
2018-05-02T15:53:59.251Z,1310
2018-05-02T15:55:00.879Z,1282
2018-05-02T15:56:02.503Z,1265
2018-05-02T15:57:04.128Z,1248
2018-05-02T15:58:05.869Z,1243
2018-05-02T15:59:07.378Z,1237
2018-05-02T16:00:08.995Z,1220
2018-05-02T16:01:10.620Z,1215
2018-05-02T16:02:12.283Z,1203
2018-05-02T16:03:13.867Z,1215
2018-05-02T16:04:15.493Z,1198
2018-05-02T16:05:17.118Z,1170
2018-05-02T16:06:18.747Z,1158
2018-05-02T16:07:20.363Z,1141
2018-05-02T16:08:21.993Z,1119
2018-05-02T16:09:23.611Z,1108
2018-05-02T16:10:25.241Z,1113
2018-05-02T16:11:26.868Z,1125
2018-05-02T16:12:28.485Z,1113
2018-05-02T16:13:30.109Z,1113
2018-05-02T16:14:31.733Z,1108
2018-05-02T16:15:33.364Z,1108
2018-05-02T16:16:34.980Z,1074
2018-05-02T16:17:36.597Z,1057
2018-05-02T16:18:38.223Z,1029
2018-05-02T16:19:39.845Z,1023
2018-05-02T16:20:41.469Z,1018
2018-05-02T16:21:43.094Z,1012
2018-05-02T16:22:44.716Z,1001
2018-05-02T16:23:46.343Z,1006
2018-05-02T16:24:47.962Z,984
2018-05-02T16:25:49.586Z,973
2018-05-02T16:26:51.209Z,967
2018-05-02T16:27:52.906Z,950
2018-05-02T16:28:54.451Z,933
2018-05-02T16:29:56.164Z,928
2018-05-02T16:30:57.693Z,911
2018-05-02T16:31:59.326Z,894
2018-05-02T16:33:00.942Z,888
2018-05-02T16:34:02.634Z,877
2018-05-02T16:35:04.186Z,855
2018-05-02T16:36:05.806Z,838
2018-05-02T16:37:07.544Z,815
2018-05-02T16:38:09.163Z,798
2018-05-02T16:39:10.789Z,781
2018-05-02T16:40:12.407Z,759
2018-05-02T16:41:14.032Z,753
2018-05-02T16:42:15.657Z,720
2018-05-02T16:43:17.271Z,658
2018-05-02T16:44:18.895Z,646
2018-05-02T16:45:20.517Z,641
2018-05-02T16:46:22.143Z,686
2018-05-02T16:47:23.760Z,686
2018-05-02T16:48:25.381Z,697
2018-05-02T16:49:26.998Z,691
2018-05-02T16:50:28.791Z,686
2018-05-02T16:51:30.418Z,680
2018-05-02T16:52:32.045Z,675
2018-05-02T16:53:33.668Z,675
2018-05-02T16:54:35.284Z,652
2018-05-02T16:55:36.907Z,641
2018-05-02T16:56:38.600Z,624
2018-05-02T16:57:40.148Z,601
2018-05-02T16:58:41.777Z,585
2018-05-02T16:59:43.397Z,585
2018-05-02T17:00:45.018Z,568
2018-05-02T17:01:46.643Z,562
2018-05-02T17:02:48.260Z,540
2018-05-02T17:03:49.884Z,528
2018-05-02T17:04:51.511Z,511
2018-05-02T17:05:53.132Z,495
2018-05-02T17:06:54.753Z,489
2018-05-02T17:07:56.379Z,478
2018-05-02T17:08:57.994Z,466
2018-05-02T17:09:59.619Z,455
2018-05-02T17:11:01.236Z,438
2018-05-02T17:12:02.862Z,433
2018-05-02T17:13:04.483Z,427
2018-05-02T17:14:06.104Z,410
2018-05-02T17:15:07.734Z,405
2018-05-02T17:16:09.353Z,393
2018-05-02T17:17:10.979Z,388
2018-05-02T17:18:12.595Z,388
2018-05-02T17:19:14.215Z,382
2018-05-02T17:20:15.841Z,376
2018-05-02T17:21:17.457Z,371
2018-05-02T17:22:19.164Z,360
2018-05-02T17:23:20.699Z,348
2018-05-02T17:24:22.317Z,348
2018-05-02T17:25:23.937Z,337
2018-05-02T17:26:25.555Z,331
2018-05-02T17:27:27.185Z,326
2018-05-02T17:28:28.802Z,315
2018-05-02T17:29:30.424Z,303
2018-05-02T17:30:32.045Z,298
2018-05-02T17:31:33.666Z,292
2018-05-02T17:32:35.279Z,286
2018-05-02T17:33:36.902Z,286
2018-05-02T17:34:38.521Z,281
2018-05-02T17:35:40.140Z,275
2018-05-02T17:36:41.767Z,270
2018-05-02T17:37:43.391Z,270
2018-05-02T17:38:45.004Z,264
2018-05-02T17:39:46.627Z,123
2018-05-02T17:40:48.252Z,253
2018-05-02T17:41:49.872Z,253
2018-05-02T17:42:51.499Z,253
2018-05-02T17:43:53.122Z,247
2018-05-02T17:44:54.741Z,241
2018-05-02T17:45:56.356Z,236
2018-05-02T17:46:57.981Z,230
2018-05-02T17:47:59.604Z,219
2018-05-02T17:49:01.220Z,213
2018-05-02T17:50:02.847Z,213
2018-05-02T17:51:04.464Z,208
2018-05-02T17:52:06.082Z,208
2018-05-02T17:53:07.708Z,202
2018-05-02T17:54:09.318Z,196
2018-05-02T17:55:10.939Z,191
2018-05-02T17:56:12.561Z,185
2018-05-02T17:57:14.179Z,180
2018-05-02T17:58:15.799Z,174
2018-05-02T17:59:17.422Z,174
2018-05-02T18:00:19.042Z,174
2018-05-02T18:01:20.656Z,168
2018-05-02T18:02:22.279Z,168
2018-05-02T18:03:23.898Z,163
2018-05-02T18:04:25.541Z,163
2018-05-02T18:05:27.144Z,157
2018-05-02T18:06:28.757Z,157
2018-05-02T18:07:30.373Z,151
2018-05-02T18:08:31.994Z,151
2018-05-02T18:09:33.613Z,146
2018-05-02T18:10:35.240Z,146
2018-05-02T18:11:36.859Z,140
2018-05-02T18:12:38.484Z,140
2018-05-02T18:13:40.101Z,135
2018-05-02T18:14:41.720Z,129
2018-05-02T18:15:43.338Z,129
2018-05-02T18:16:44.952Z,123
2018-05-02T18:17:46.575Z,118
2018-05-02T18:18:48.194Z,112
2018-05-02T18:19:49.821Z,106
2018-05-02T18:20:51.435Z,106
2018-05-02T18:21:53.049Z,101
2018-05-02T18:22:54.673Z,95
2018-05-02T18:23:56.288Z,90
2018-05-02T18:24:57.903Z,90
2018-05-02T18:25:59.526Z,84
2018-05-02T18:27:01.140Z,84
2018-05-02T18:28:02.757Z,84
2018-05-02T18:29:04.375Z,78
2018-05-02T18:30:05.994Z,78
2018-05-02T18:31:07.617Z,73
2018-05-02T18:32:09.235Z,67
2018-05-02T18:33:10.848Z,67
2018-05-02T18:34:12.471Z,61
2018-05-02T18:35:14.081Z,61
2018-05-02T18:36:15.700Z,56
2018-05-02T18:37:17.319Z,56
2018-05-02T18:38:18.935Z,50
2018-05-02T18:39:20.553Z,45
2018-05-02T18:40:22.168Z,45
2018-05-02T18:41:23.785Z,39
2018-05-02T18:42:25.404Z,39
2018-05-02T18:43:27.024Z,39
2018-05-02T18:44:28.636Z,33
2018-05-02T18:45:30.261Z,33
2018-05-02T18:46:31.866Z,28
2018-05-02T18:47:33.486Z,28
2018-05-02T18:48:35.109Z,28
2018-05-02T18:49:36.722Z,28
2018-05-02T18:50:38.344Z,22
2018-05-02T18:51:39.959Z,22
2018-05-02T18:52:41.576Z,22
2018-05-02T18:53:43.198Z,16
2018-05-02T18:54:44.885Z,16
2018-05-02T18:55:46.433Z,16
2018-05-02T18:56:48.052Z,16
2018-05-02T18:57:49.707Z,11
2018-05-02T18:58:51.331Z,11
2018-05-02T18:59:52.945Z,11
2018-05-02T19:00:54.565Z,5
2018-05-02T19:01:56.177Z,5
2018-05-02T19:02:57.797Z,5
2018-05-02T19:03:59.444Z,5
2018-05-02T19:05:01.031Z,5
2018-05-02T19:06:02.646Z,5
2018-05-02T19:07:04.259Z,0
2018-05-02T19:08:05.877Z,0
2018-05-02T19:09:07.495Z,0
2018-05-02T19:10:09.114Z,0
2018-05-02T19:11:10.726Z,0
2018-05-02T19:12:12.366Z,0
2018-05-02T19:13:13.957Z,0
2018-05-02T19:14:15.570Z,0
2018-05-02T19:15:17.191Z,0
2018-05-02T19:16:18.813Z,0
2018-05-02T19:17:20.432Z,0
2018-05-02T19:18:22.046Z,0
2018-05-02T19:19:23.659Z,0
2018-05-02T19:20:25.274Z,0
2018-05-02T19:21:26.881Z,0
2018-05-02T19:22:28.496Z,0
2018-05-02T19:23:30.990Z,0
2018-05-02T19:24:32.568Z,0
2018-05-02T19:25:34.207Z,0
2018-05-02T19:26:35.824Z,0
2018-05-02T19:27:37.436Z,0
2018-05-02T19:28:39.081Z,0
2018-05-02T19:29:40.686Z,0
2018-05-02T19:30:42.281Z,0
2018-05-02T19:31:43.900Z,0
2018-05-02T19:32:45.505Z,0
2018-05-02T19:33:47.125Z,0
2018-05-02T19:34:48.741Z,0
2018-05-02T19:35:50.348Z,0
2018-05-02T19:36:51.975Z,0
2018-05-02T19:37:53.588Z,0